Terminal Aerodrome Forecast
Issued by NWS Burlington, VT

Home | Current Version | Previous Version | Text Only | Print | Product List | Glossary On
Versions: 1 2 3 4 5 6 7 8 9 10 11 12 13
000
FTUS41 KBTV 301139
TAFBTV
TAF
KBTV 301139Z 3012/3112 VRB03KT P6SM SCT090 BKN140
     FM301400 21008KT P6SM BKN100
     FM310000 18004KT P6SM SCT100=

USA.gov is the U.S. government's official web portal to all federal, state and local government web resources and services.